sensor_id;sensor_type;location;lat;lon;timestamp;P1;durP1;ratioP1;P2;durP2;ratioP2
11665;SDS011;5889;51.350;6.708;2022-08-18T00:02:14;70.93;;;54.55;;
11665;SDS011;5889;51.350;6.708;2022-08-18T00:04:43;74.43;;;54.38;;
11665;SDS011;5889;51.350;6.708;2022-08-18T00:07:11;76.60;;;57.50;;
11665;SDS011;5889;51.350;6.708;2022-08-18T00:09:40;77.10;;;55.08;;
11665;SDS011;5889;51.350;6.708;2022-08-18T00:12:11;75.15;;;54.45;;
11665;SDS011;5889;51.350;6.708;2022-08-18T00:14:41;75.47;;;56.92;;
11665;SDS011;5889;51.350;6.708;2022-08-18T00:17:08;75.78;;;57.65;;
11665;SDS011;5889;51.350;6.708;2022-08-18T00:19:36;73.90;;;57.30;;
11665;SDS011;5889;51.350;6.708;2022-08-18T00:22:03;75.72;;;56.38;;
11665;SDS011;5889;51.350;6.708;2022-08-18T00:24:30;80.63;;;59.28;;
11665;SDS011;5889;51.350;6.708;2022-08-18T00:26:57;86.75;;;62.40;;
11665;SDS011;5889;51.350;6.708;2022-08-18T00:29:24;62.83;;;48.22;;
11665;SDS011;5889;51.350;6.708;2022-08-18T00:31:51;66.55;;;50.13;;
11665;SDS011;5889;51.350;6.708;2022-08-18T00:34:18;71.15;;;52.55;;
11665;SDS011;5889;51.350;6.708;2022-08-18T00:36:46;62.85;;;49.15;;
11665;SDS011;5889;51.350;6.708;2022-08-18T00:39:14;70.35;;;52.58;;
11665;SDS011;5889;51.350;6.708;2022-08-18T00:41:41;70.78;;;51.55;;
11665;SDS011;5889;51.350;6.708;2022-08-18T00:44:08;71.78;;;54.05;;
11665;SDS011;5889;51.350;6.708;2022-08-18T00:46:35;62.15;;;49.17;;
11665;SDS011;5889;51.350;6.708;2022-08-18T00:49:03;55.13;;;45.42;;
11665;SDS011;5889;51.350;6.708;2022-08-18T00:51:32;53.45;;;43.25;;
11665;SDS011;5889;51.350;6.708;2022-08-18T00:54:12;77.60;;;55.58;;
11665;SDS011;5889;51.350;6.708;2022-08-18T00:56:44;85.15;;;58.50;;
11665;SDS011;5889;51.350;6.708;2022-08-18T00:59:15;84.15;;;57.47;;
11665;SDS011;5889;51.350;6.708;2022-08-18T01:01:46;84.00;;;58.67;;
11665;SDS011;5889;51.350;6.708;2022-08-18T01:04:16;83.70;;;59.03;;
11665;SDS011;5889;51.350;6.708;2022-08-18T01:06:48;88.43;;;60.65;;
11665;SDS011;5889;51.350;6.708;2022-08-18T01:09:19;86.13;;;59.63;;
11665;SDS011;5889;51.350;6.708;2022-08-18T01:11:46;90.90;;;62.35;;
11665;SDS011;5889;51.350;6.708;2022-08-18T01:14:15;92.93;;;62.63;;
11665;SDS011;5889;51.350;6.708;2022-08-18T01:16:42;94.63;;;62.47;;
11665;SDS011;5889;51.350;6.708;2022-08-18T01:19:27;91.32;;;59.58;;
11665;SDS011;5889;51.350;6.708;2022-08-18T01:22:25;91.20;;;58.90;;
11665;SDS011;5889;51.350;6.708;2022-08-18T01:24:57;88.43;;;58.03;;
11665;SDS011;5889;51.350;6.708;2022-08-18T01:27:43;92.47;;;60.63;;
11665;SDS011;5889;51.350;6.708;2022-08-18T01:30:11;91.82;;;61.00;;
11665;SDS011;5889;51.350;6.708;2022-08-18T01:32:40;87.05;;;57.60;;
11665;SDS011;5889;51.350;6.708;2022-08-18T01:35:10;87.72;;;58.80;;
11665;SDS011;5889;51.350;6.708;2022-08-18T01:37:39;88.68;;;59.83;;
11665;SDS011;5889;51.350;6.708;2022-08-18T01:40:09;91.25;;;61.30;;
11665;SDS011;5889;51.350;6.708;2022-08-18T01:42:38;92.03;;;59.67;;
11665;SDS011;5889;51.350;6.708;2022-08-18T01:45:07;88.95;;;59.85;;
11665;SDS011;5889;51.350;6.708;2022-08-18T01:47:35;90.18;;;58.80;;
11665;SDS011;5889;51.350;6.708;2022-08-18T01:50:04;88.90;;;59.50;;
11665;SDS011;5889;51.350;6.708;2022-08-18T01:52:32;85.60;;;58.15;;
11665;SDS011;5889;51.350;6.708;2022-08-18T01:55:00;89.68;;;59.63;;
11665;SDS011;5889;51.350;6.708;2022-08-18T01:57:29;87.97;;;58.92;;
11665;SDS011;5889;51.350;6.708;2022-08-18T01:59:56;87.28;;;59.78;;
11665;SDS011;5889;51.350;6.708;2022-08-18T02:02:25;88.93;;;60.35;;
11665;SDS011;5889;51.350;6.708;2022-08-18T02:04:58;89.20;;;61.17;;
11665;SDS011;5889;51.350;6.708;2022-08-18T02:07:30;89.90;;;59.53;;
11665;SDS011;5889;51.350;6.708;2022-08-18T02:09:57;86.00;;;58.17;;
11665;SDS011;5889;51.350;6.708;2022-08-18T02:12:23;89.43;;;59.63;;
11665;SDS011;5889;51.350;6.708;2022-08-18T02:14:52;87.50;;;57.60;;
11665;SDS011;5889;51.350;6.708;2022-08-18T02:17:19;89.38;;;58.17;;
11665;SDS011;5889;51.350;6.708;2022-08-18T02:19:46;86.40;;;55.92;;
11665;SDS011;5889;51.350;6.708;2022-08-18T02:22:15;84.35;;;54.58;;
11665;SDS011;5889;51.350;6.708;2022-08-18T02:24:43;86.68;;;54.70;;
11665;SDS011;5889;51.350;6.708;2022-08-18T02:27:14;86.78;;;54.08;;
11665;SDS011;5889;51.350;6.708;2022-08-18T02:29:41;83.70;;;54.28;;
11665;SDS011;5889;51.350;6.708;2022-08-18T02:32:09;86.35;;;53.33;;
11665;SDS011;5889;51.350;6.708;2022-08-18T02:34:36;89.00;;;53.60;;
11665;SDS011;5889;51.350;6.708;2022-08-18T02:37:03;91.03;;;55.28;;
11665;SDS011;5889;51.350;6.708;2022-08-18T02:39:32;94.85;;;55.47;;
11665;SDS011;5889;51.350;6.708;2022-08-18T02:42:02;96.95;;;58.28;;
11665;SDS011;5889;51.350;6.708;2022-08-18T02:44:29;98.57;;;57.13;;
11665;SDS011;5889;51.350;6.708;2022-08-18T02:46:56;101.05;;;57.38;;
11665;SDS011;5889;51.350;6.708;2022-08-18T02:49:25;105.22;;;56.95;;
11665;SDS011;5889;51.350;6.708;2022-08-18T02:51:52;102.72;;;58.22;;
11665;SDS011;5889;51.350;6.708;2022-08-18T02:54:20;102.38;;;55.47;;
11665;SDS011;5889;51.350;6.708;2022-08-18T02:56:48;103.28;;;56.25;;
11665;SDS011;5889;51.350;6.708;2022-08-18T02:59:16;92.57;;;51.05;;
11665;SDS011;5889;51.350;6.708;2022-08-18T03:01:45;93.80;;;53.00;;
11665;SDS011;5889;51.350;6.708;2022-08-18T03:04:16;91.43;;;49.55;;
11665;SDS011;5889;51.350;6.708;2022-08-18T03:06:46;86.78;;;50.20;;
11665;SDS011;5889;51.350;6.708;2022-08-18T03:09:14;92.28;;;50.60;;
11665;SDS011;5889;51.350;6.708;2022-08-18T03:11:42;84.28;;;46.25;;
11665;SDS011;5889;51.350;6.708;2022-08-18T03:14:10;87.63;;;47.28;;
11665;SDS011;5889;51.350;6.708;2022-08-18T03:16:37;82.13;;;45.78;;
11665;SDS011;5889;51.350;6.708;2022-08-18T03:19:05;84.72;;;48.25;;
11665;SDS011;5889;51.350;6.708;2022-08-18T03:21:32;86.72;;;47.38;;
11665;SDS011;5889;51.350;6.708;2022-08-18T03:24:04;87.22;;;48.38;;
11665;SDS011;5889;51.350;6.708;2022-08-18T03:26:31;89.60;;;51.05;;
11665;SDS011;5889;51.350;6.708;2022-08-18T03:28:58;94.35;;;48.40;;
11665;SDS011;5889;51.350;6.708;2022-08-18T03:31:27;90.25;;;48.00;;
11665;SDS011;5889;51.350;6.708;2022-08-18T03:33:56;84.85;;;46.85;;
11665;SDS011;5889;51.350;6.708;2022-08-18T03:36:25;83.85;;;47.58;;
11665;SDS011;5889;51.350;6.708;2022-08-18T03:38:56;80.80;;;46.38;;
11665;SDS011;5889;51.350;6.708;2022-08-18T03:41:25;81.68;;;46.80;;
11665;SDS011;5889;51.350;6.708;2022-08-18T03:43:53;96.40;;;45.58;;
11665;SDS011;5889;51.350;6.708;2022-08-18T03:46:21;187.35;;;50.97;;
11665;SDS011;5889;51.350;6.708;2022-08-18T03:48:49;213.55;;;50.80;;
11665;SDS011;5889;51.350;6.708;2022-08-18T03:51:17;81.90;;;44.78;;
11665;SDS011;5889;51.350;6.708;2022-08-18T03:53:46;91.50;;;47.70;;
11665;SDS011;5889;51.350;6.708;2022-08-18T03:56:15;76.90;;;45.25;;
11665;SDS011;5889;51.350;6.708;2022-08-18T03:58:46;77.18;;;45.33;;
11665;SDS011;5889;51.350;6.708;2022-08-18T04:01:15;72.57;;;44.13;;
11665;SDS011;5889;51.350;6.708;2022-08-18T04:03:44;73.78;;;43.13;;
11665;SDS011;5889;51.350;6.708;2022-08-18T04:06:13;72.10;;;43.25;;
11665;SDS011;5889;51.350;6.708;2022-08-18T04:08:41;68.53;;;42.85;;
11665;SDS011;5889;51.350;6.708;2022-08-18T04:11:08;71.30;;;43.92;;
11665;SDS011;5889;51.350;6.708;2022-08-18T04:13:38;70.55;;;43.38;;
11665;SDS011;5889;51.350;6.708;2022-08-18T04:16:07;69.75;;;42.75;;
11665;SDS011;5889;51.350;6.708;2022-08-18T04:18:35;78.00;;;44.30;;
11665;SDS011;5889;51.350;6.708;2022-08-18T04:21:04;99.13;;;42.42;;
11665;SDS011;5889;51.350;6.708;2022-08-18T04:23:33;78.75;;;41.17;;
11665;SDS011;5889;51.350;6.708;2022-08-18T04:26:00;63.53;;;41.08;;
11665;SDS011;5889;51.350;6.708;2022-08-18T04:28:28;64.78;;;41.80;;
11665;SDS011;5889;51.350;6.708;2022-08-18T04:30:56;63.88;;;40.90;;
11665;SDS011;5889;51.350;6.708;2022-08-18T04:33:25;62.83;;;40.90;;
11665;SDS011;5889;51.350;6.708;2022-08-18T04:35:53;71.20;;;42.72;;
11665;SDS011;5889;51.350;6.708;2022-08-18T04:38:20;206.50;;;48.83;;
11665;SDS011;5889;51.350;6.708;2022-08-18T04:40:48;76.72;;;44.80;;
11665;SDS011;5889;51.350;6.708;2022-08-18T04:43:15;75.22;;;44.55;;
11665;SDS011;5889;51.350;6.708;2022-08-18T04:45:43;71.82;;;46.20;;
11665;SDS011;5889;51.350;6.708;2022-08-18T04:48:11;72.45;;;44.95;;
11665;SDS011;5889;51.350;6.708;2022-08-18T04:50:41;73.68;;;44.30;;
11665;SDS011;5889;51.350;6.708;2022-08-18T04:53:09;75.13;;;45.40;;
11665;SDS011;5889;51.350;6.708;2022-08-18T04:55:54;72.95;;;45.75;;
11665;SDS011;5889;51.350;6.708;2022-08-18T04:58:22;76.43;;;44.88;;
11665;SDS011;5889;51.350;6.708;2022-08-18T05:00:55;73.20;;;45.88;;
11665;SDS011;5889;51.350;6.708;2022-08-18T05:03:23;76.55;;;47.30;;
11665;SDS011;5889;51.350;6.708;2022-08-18T05:05:52;78.43;;;46.80;;
11665;SDS011;5889;51.350;6.708;2022-08-18T05:08:20;83.20;;;48.63;;
11665;SDS011;5889;51.350;6.708;2022-08-18T05:10:47;78.93;;;45.75;;
11665;SDS011;5889;51.350;6.708;2022-08-18T05:13:18;71.38;;;44.28;;
11665;SDS011;5889;51.350;6.708;2022-08-18T05:15:50;79.65;;;48.97;;
11665;SDS011;5889;51.350;6.708;2022-08-18T05:18:18;76.93;;;47.05;;
11665;SDS011;5889;51.350;6.708;2022-08-18T05:20:48;78.82;;;46.50;;
11665;SDS011;5889;51.350;6.708;2022-08-18T05:23:17;122.57;;;49.55;;
11665;SDS011;5889;51.350;6.708;2022-08-18T05:25:44;80.47;;;45.45;;
11665;SDS011;5889;51.350;6.708;2022-08-18T05:28:11;76.25;;;45.10;;
11665;SDS011;5889;51.350;6.708;2022-08-18T05:30:38;74.18;;;43.65;;
11665;SDS011;5889;51.350;6.708;2022-08-18T05:33:05;73.18;;;43.72;;
11665;SDS011;5889;51.350;6.708;2022-08-18T05:35:35;68.93;;;43.25;;
11665;SDS011;5889;51.350;6.708;2022-08-18T05:38:10;74.82;;;43.50;;
11665;SDS011;5889;51.350;6.708;2022-08-18T05:41:05;72.72;;;44.00;;
11665;SDS011;5889;51.350;6.708;2022-08-18T05:43:35;65.70;;;43.88;;
11665;SDS011;5889;51.350;6.708;2022-08-18T05:46:03;70.93;;;45.05;;
11665;SDS011;5889;51.350;6.708;2022-08-18T05:48:32;74.95;;;44.08;;
11665;SDS011;5889;51.350;6.708;2022-08-18T05:51:00;72.50;;;44.78;;
11665;SDS011;5889;51.350;6.708;2022-08-18T05:53:37;82.35;;;46.60;;
11665;SDS011;5889;51.350;6.708;2022-08-18T05:56:23;78.72;;;46.47;;
11665;SDS011;5889;51.350;6.708;2022-08-18T05:59:15;82.07;;;47.60;;
11665;SDS011;5889;51.350;6.708;2022-08-18T06:01:47;81.63;;;48.15;;
11665;SDS011;5889;51.350;6.708;2022-08-18T06:04:22;81.18;;;47.03;;
11665;SDS011;5889;51.350;6.708;2022-08-18T06:06:55;83.07;;;48.72;;
11665;SDS011;5889;51.350;6.708;2022-08-18T06:09:27;82.93;;;48.58;;
11665;SDS011;5889;51.350;6.708;2022-08-18T06:12:01;85.45;;;49.72;;
11665;SDS011;5889;51.350;6.708;2022-08-18T06:14:35;85.25;;;48.97;;
11665;SDS011;5889;51.350;6.708;2022-08-18T06:17:07;85.30;;;48.47;;
11665;SDS011;5889;51.350;6.708;2022-08-18T06:19:49;81.53;;;48.38;;
11665;SDS011;5889;51.350;6.708;2022-08-18T06:22:25;82.15;;;48.70;;
11665;SDS011;5889;51.350;6.708;2022-08-18T06:25:01;83.50;;;48.25;;
11665;SDS011;5889;51.350;6.708;2022-08-18T06:27:35;82.53;;;47.65;;
11665;SDS011;5889;51.350;6.708;2022-08-18T06:30:10;84.45;;;49.85;;
11665;SDS011;5889;51.350;6.708;2022-08-18T06:32:53;75.43;;;46.70;;
11665;SDS011;5889;51.350;6.708;2022-08-18T06:35:31;80.03;;;46.78;;
11665;SDS011;5889;51.350;6.708;2022-08-18T06:38:03;71.53;;;42.78;;
11665;SDS011;5889;51.350;6.708;2022-08-18T06:41:09;70.47;;;43.72;;
11665;SDS011;5889;51.350;6.708;2022-08-18T06:43:42;90.10;;;44.28;;
11665;SDS011;5889;51.350;6.708;2022-08-18T06:46:19;70.90;;;44.63;;
11665;SDS011;5889;51.350;6.708;2022-08-18T06:48:53;70.43;;;45.63;;
11665;SDS011;5889;51.350;6.708;2022-08-18T06:51:26;76.15;;;45.13;;
11665;SDS011;5889;51.350;6.708;2022-08-18T06:53:55;69.60;;;43.45;;
11665;SDS011;5889;51.350;6.708;2022-08-18T06:56:31;68.18;;;43.45;;
11665;SDS011;5889;51.350;6.708;2022-08-18T06:59:12;68.55;;;41.40;;
11665;SDS011;5889;51.350;6.708;2022-08-18T07:01:42;62.83;;;39.50;;
11665;SDS011;5889;51.350;6.708;2022-08-18T07:04:26;63.22;;;41.47;;
11665;SDS011;5889;51.350;6.708;2022-08-18T07:06:56;62.15;;;39.63;;
11665;SDS011;5889;51.350;6.708;2022-08-18T07:09:24;64.00;;;40.95;;
11665;SDS011;5889;51.350;6.708;2022-08-18T07:12:03;59.80;;;42.05;;
11665;SDS011;5889;51.350;6.708;2022-08-18T07:14:31;61.13;;;39.83;;
11665;SDS011;5889;51.350;6.708;2022-08-18T07:17:08;58.45;;;39.42;;
11665;SDS011;5889;51.350;6.708;2022-08-18T07:19:38;61.08;;;40.90;;
11665;SDS011;5889;51.350;6.708;2022-08-18T07:22:06;65.32;;;42.53;;
11665;SDS011;5889;51.350;6.708;2022-08-18T07:24:36;61.15;;;40.58;;
11665;SDS011;5889;51.350;6.708;2022-08-18T07:27:08;58.28;;;40.42;;
11665;SDS011;5889;51.350;6.708;2022-08-18T07:29:37;61.42;;;42.33;;
11665;SDS011;5889;51.350;6.708;2022-08-18T07:32:07;60.05;;;41.65;;
11665;SDS011;5889;51.350;6.708;2022-08-18T07:34:38;59.05;;;40.17;;
11665;SDS011;5889;51.350;6.708;2022-08-18T07:37:11;53.88;;;38.92;;
11665;SDS011;5889;51.350;6.708;2022-08-18T07:39:44;55.60;;;39.67;;
11665;SDS011;5889;51.350;6.708;2022-08-18T07:42:18;61.65;;;40.13;;
11665;SDS011;5889;51.350;6.708;2022-08-18T07:44:52;52.78;;;38.65;;
11665;SDS011;5889;51.350;6.708;2022-08-18T07:47:25;51.58;;;36.95;;
11665;SDS011;5889;51.350;6.708;2022-08-18T07:49:57;50.97;;;36.33;;
11665;SDS011;5889;51.350;6.708;2022-08-18T07:52:25;48.45;;;36.50;;
11665;SDS011;5889;51.350;6.708;2022-08-18T07:54:58;48.08;;;35.17;;
11665;SDS011;5889;51.350;6.708;2022-08-18T07:57:36;51.47;;;36.88;;
11665;SDS011;5889;51.350;6.708;2022-08-18T08:00:17;51.83;;;37.45;;
11665;SDS011;5889;51.350;6.708;2022-08-18T08:02:50;45.13;;;34.53;;
11665;SDS011;5889;51.350;6.708;2022-08-18T08:05:32;45.83;;;32.38;;
11665;SDS011;5889;51.350;6.708;2022-08-18T08:08:10;40.60;;;30.58;;
11665;SDS011;5889;51.350;6.708;2022-08-18T08:10:48;37.85;;;28.25;;
11665;SDS011;5889;51.350;6.708;2022-08-18T08:13:25;40.95;;;27.38;;
11665;SDS011;5889;51.350;6.708;2022-08-18T08:16:06;35.15;;;28.05;;
11665;SDS011;5889;51.350;6.708;2022-08-18T08:18:52;35.03;;;26.50;;
11665;SDS011;5889;51.350;6.708;2022-08-18T08:21:30;30.73;;;25.98;;
11665;SDS011;5889;51.350;6.708;2022-08-18T08:24:09;32.63;;;23.92;;
11665;SDS011;5889;51.350;6.708;2022-08-18T08:26:45;32.95;;;25.15;;
11665;SDS011;5889;51.350;6.708;2022-08-18T08:29:20;34.25;;;25.13;;
11665;SDS011;5889;51.350;6.708;2022-08-18T08:32:01;31.75;;;23.33;;
11665;SDS011;5889;51.350;6.708;2022-08-18T08:34:30;27.35;;;22.67;;
11665;SDS011;5889;51.350;6.708;2022-08-18T08:37:04;26.50;;;21.58;;
11665;SDS011;5889;51.350;6.708;2022-08-18T08:39:35;28.80;;;21.75;;
11665;SDS011;5889;51.350;6.708;2022-08-18T08:42:07;28.23;;;23.02;;
11665;SDS011;5889;51.350;6.708;2022-08-18T08:44:39;23.63;;;20.02;;
11665;SDS011;5889;51.350;6.708;2022-08-18T08:47:13;25.35;;;18.50;;
11665;SDS011;5889;51.350;6.708;2022-08-18T08:49:46;24.33;;;18.85;;
11665;SDS011;5889;51.350;6.708;2022-08-18T08:52:18;21.27;;;17.40;;
11665;SDS011;5889;51.350;6.708;2022-08-18T08:54:50;22.23;;;18.80;;
11665;SDS011;5889;51.350;6.708;2022-08-18T08:57:25;25.45;;;18.23;;
11665;SDS011;5889;51.350;6.708;2022-08-18T08:59:57;20.10;;;16.50;;
11665;SDS011;5889;51.350;6.708;2022-08-18T09:02:30;30.15;;;16.85;;
11665;SDS011;5889;51.350;6.708;2022-08-18T09:05:20;20.17;;;15.82;;
11665;SDS011;5889;51.350;6.708;2022-08-18T09:08:00;20.05;;;15.88;;
11665;SDS011;5889;51.350;6.708;2022-08-18T09:10:41;19.80;;;15.23;;
11665;SDS011;5889;51.350;6.708;2022-08-18T09:13:26;22.15;;;16.73;;
11665;SDS011;5889;51.350;6.708;2022-08-18T09:16:19;20.88;;;16.08;;
11665;SDS011;5889;51.350;6.708;2022-08-18T09:19:03;19.80;;;15.23;;
11665;SDS011;5889;51.350;6.708;2022-08-18T09:21:47;21.40;;;15.55;;
11665;SDS011;5889;51.350;6.708;2022-08-18T09:24:21;16.85;;;14.35;;
11665;SDS011;5889;51.350;6.708;2022-08-18T09:26:51;33.55;;;16.80;;
11665;SDS011;5889;51.350;6.708;2022-08-18T09:29:45;19.30;;;14.82;;
11665;SDS011;5889;51.350;6.708;2022-08-18T09:35:30;18.02;;;13.55;;
11665;SDS011;5889;51.350;6.708;2022-08-18T09:38:07;14.57;;;12.60;;
11665;SDS011;5889;51.350;6.708;2022-08-18T09:40:59;17.67;;;13.35;;
11665;SDS011;5889;51.350;6.708;2022-08-18T09:43:55;50.20;;;15.85;;
11665;SDS011;5889;51.350;6.708;2022-08-18T09:58:14;15.50;;;12.88;;
11665;SDS011;5889;51.350;6.708;2022-08-18T10:00:44;15.55;;;13.25;;
11665;SDS011;5889;51.350;6.708;2022-08-18T10:03:31;70.10;;;16.65;;
11665;SDS011;5889;51.350;6.708;2022-08-18T10:06:04;15.20;;;13.45;;
11665;SDS011;5889;51.350;6.708;2022-08-18T10:09:01;15.95;;;14.00;;
11665;SDS011;5889;51.350;6.708;2022-08-18T10:11:43;16.73;;;15.02;;
11665;SDS011;5889;51.350;6.708;2022-08-18T10:14:33;16.95;;;13.65;;
11665;SDS011;5889;51.350;6.708;2022-08-18T10:17:28;17.38;;;13.50;;
11665;SDS011;5889;51.350;6.708;2022-08-18T10:20:13;16.55;;;14.40;;
11665;SDS011;5889;51.350;6.708;2022-08-18T10:22:52;14.68;;;13.07;;
11665;SDS011;5889;51.350;6.708;2022-08-18T10:25:32;16.52;;;12.75;;
11665;SDS011;5889;51.350;6.708;2022-08-18T10:28:03;13.63;;;12.23;;
11665;SDS011;5889;51.350;6.708;2022-08-18T10:36:40;17.00;;;13.02;;
11665;SDS011;5889;51.350;6.708;2022-08-18T10:39:13;15.82;;;13.27;;
11665;SDS011;5889;51.350;6.708;2022-08-18T10:44:36;15.50;;;11.23;;
11665;SDS011;5889;51.350;6.708;2022-08-18T10:47:07;12.60;;;10.90;;
11665;SDS011;5889;51.350;6.708;2022-08-18T10:49:46;13.10;;;11.63;;
11665;SDS011;5889;51.350;6.708;2022-08-18T10:52:18;13.43;;;12.02;;
11665;SDS011;5889;51.350;6.708;2022-08-18T10:55:07;13.88;;;11.73;;
11665;SDS011;5889;51.350;6.708;2022-08-18T11:00:37;15.45;;;13.43;;
11665;SDS011;5889;51.350;6.708;2022-08-18T11:03:29;15.77;;;11.27;;
11665;SDS011;5889;51.350;6.708;2022-08-18T11:06:09;15.73;;;13.65;;
11665;SDS011;5889;51.350;6.708;2022-08-18T11:08:43;18.02;;;15.18;;
11665;SDS011;5889;51.350;6.708;2022-08-18T11:11:18;16.05;;;14.10;;
11665;SDS011;5889;51.350;6.708;2022-08-18T11:13:49;15.43;;;13.85;;
11665;SDS011;5889;51.350;6.708;2022-08-18T11:16:29;15.02;;;12.50;;
11665;SDS011;5889;51.350;6.708;2022-08-18T11:19:07;16.58;;;14.88;;
11665;SDS011;5889;51.350;6.708;2022-08-18T11:21:37;18.13;;;16.38;;
11665;SDS011;5889;51.350;6.708;2022-08-18T11:24:08;26.25;;;18.42;;
11665;SDS011;5889;51.350;6.708;2022-08-18T11:26:39;19.83;;;17.40;;
11665;SDS011;5889;51.350;6.708;2022-08-18T11:29:18;21.50;;;16.73;;
11665;SDS011;5889;51.350;6.708;2022-08-18T11:31:47;16.13;;;14.52;;
11665;SDS011;5889;51.350;6.708;2022-08-18T11:34:17;15.65;;;12.82;;
11665;SDS011;5889;51.350;6.708;2022-08-18T11:36:54;34.38;;;11.65;;
11665;SDS011;5889;51.350;6.708;2022-08-18T11:39:23;10.30;;;9.07;;
11665;SDS011;5889;51.350;6.708;2022-08-18T11:41:51;10.25;;;9.23;;
11665;SDS011;5889;51.350;6.708;2022-08-18T11:44:20;12.40;;;10.30;;
11665;SDS011;5889;51.350;6.708;2022-08-18T11:46:49;9.35;;;8.10;;
11665;SDS011;5889;51.350;6.708;2022-08-18T11:49:25;10.65;;;7.70;;
11665;SDS011;5889;51.350;6.708;2022-08-18T11:51:58;9.60;;;7.78;;
11665;SDS011;5889;51.350;6.708;2022-08-18T11:54:34;12.77;;;8.32;;
11665;SDS011;5889;51.350;6.708;2022-08-18T12:03:11;15.70;;;12.13;;
11665;SDS011;5889;51.350;6.708;2022-08-18T12:05:46;19.17;;;17.17;;
11665;SDS011;5889;51.350;6.708;2022-08-18T12:08:18;17.88;;;15.93;;
11665;SDS011;5889;51.350;6.708;2022-08-18T12:10:48;20.58;;;16.95;;
11665;SDS011;5889;51.350;6.708;2022-08-18T12:13:27;18.75;;;16.75;;
11665;SDS011;5889;51.350;6.708;2022-08-18T12:16:09;19.00;;;17.02;;
11665;SDS011;5889;51.350;6.708;2022-08-18T12:18:38;18.30;;;15.88;;
11665;SDS011;5889;51.350;6.708;2022-08-18T12:21:05;22.45;;;16.73;;
11665;SDS011;5889;51.350;6.708;2022-08-18T12:23:35;17.92;;;12.85;;
11665;SDS011;5889;51.350;6.708;2022-08-18T12:26:05;16.75;;;13.10;;
11665;SDS011;5889;51.350;6.708;2022-08-18T12:28:33;17.83;;;15.93;;
11665;SDS011;5889;51.350;6.708;2022-08-18T12:31:00;15.45;;;13.85;;
11665;SDS011;5889;51.350;6.708;2022-08-18T12:33:27;15.70;;;14.27;;
11665;SDS011;5889;51.350;6.708;2022-08-18T12:35:55;13.40;;;12.10;;
11665;SDS011;5889;51.350;6.708;2022-08-18T12:38:22;12.63;;;11.32;;
11665;SDS011;5889;51.350;6.708;2022-08-18T12:40:49;13.90;;;12.50;;
11665;SDS011;5889;51.350;6.708;2022-08-18T12:43:16;11.95;;;9.77;;
11665;SDS011;5889;51.350;6.708;2022-08-18T12:45:44;12.20;;;9.93;;
11665;SDS011;5889;51.350;6.708;2022-08-18T12:48:11;9.32;;;6.10;;
11665;SDS011;5889;51.350;6.708;2022-08-18T12:50:38;7.00;;;5.07;;
11665;SDS011;5889;51.350;6.708;2022-08-18T12:53:06;8.32;;;5.97;;
11665;SDS011;5889;51.350;6.708;2022-08-18T12:55:34;6.93;;;5.38;;
11665;SDS011;5889;51.350;6.708;2022-08-18T12:58:07;5.22;;;4.72;;
11665;SDS011;5889;51.350;6.708;2022-08-18T13:00:34;5.55;;;5.05;;
11665;SDS011;5889;51.350;6.708;2022-08-18T13:03:02;7.57;;;6.75;;
11665;SDS011;5889;51.350;6.708;2022-08-18T13:05:29;7.75;;;7.03;;
11665;SDS011;5889;51.350;6.708;2022-08-18T13:07:57;7.40;;;6.78;;
11665;SDS011;5889;51.350;6.708;2022-08-18T13:10:26;8.68;;;7.32;;
11665;SDS011;5889;51.350;6.708;2022-08-18T13:12:53;7.82;;;6.55;;
11665;SDS011;5889;51.350;6.708;2022-08-18T13:15:20;8.48;;;6.50;;
11665;SDS011;5889;51.350;6.708;2022-08-18T13:17:48;7.63;;;6.05;;
11665;SDS011;5889;51.350;6.708;2022-08-18T13:20:16;7.63;;;6.93;;
11665;SDS011;5889;51.350;6.708;2022-08-18T13:22:45;8.27;;;6.90;;
11665;SDS011;5889;51.350;6.708;2022-08-18T13:25:13;6.00;;;5.40;;
11665;SDS011;5889;51.350;6.708;2022-08-18T13:27:42;8.48;;;6.03;;
11665;SDS011;5889;51.350;6.708;2022-08-18T13:30:10;5.32;;;4.78;;
11665;SDS011;5889;51.350;6.708;2022-08-18T13:32:40;5.28;;;4.78;;
11665;SDS011;5889;51.350;6.708;2022-08-18T13:35:08;7.97;;;5.78;;
11665;SDS011;5889;51.350;6.708;2022-08-18T13:37:37;5.68;;;5.18;;
11665;SDS011;5889;51.350;6.708;2022-08-18T13:40:05;5.60;;;5.07;;
11665;SDS011;5889;51.350;6.708;2022-08-18T13:42:39;7.03;;;6.30;;
11665;SDS011;5889;51.350;6.708;2022-08-18T13:45:11;7.82;;;7.03;;
11665;SDS011;5889;51.350;6.708;2022-08-18T13:47:39;7.93;;;6.47;;
11665;SDS011;5889;51.350;6.708;2022-08-18T13:50:06;9.98;;;5.95;;
11665;SDS011;5889;51.350;6.708;2022-08-18T13:52:34;10.38;;;8.13;;
11665;SDS011;5889;51.350;6.708;2022-08-18T13:55:05;12.25;;;7.95;;
11665;SDS011;5889;51.350;6.708;2022-08-18T13:57:35;16.90;;;10.82;;
11665;SDS011;5889;51.350;6.708;2022-08-18T14:00:02;14.05;;;9.25;;
11665;SDS011;5889;51.350;6.708;2022-08-18T14:02:31;8.00;;;7.25;;
11665;SDS011;5889;51.350;6.708;2022-08-18T14:04:58;9.30;;;7.53;;
11665;SDS011;5889;51.350;6.708;2022-08-18T14:07:25;15.13;;;7.00;;
11665;SDS011;5889;51.350;6.708;2022-08-18T14:09:54;8.52;;;7.57;;
11665;SDS011;5889;51.350;6.708;2022-08-18T14:12:22;7.78;;;6.97;;
11665;SDS011;5889;51.350;6.708;2022-08-18T14:14:49;9.23;;;6.80;;
11665;SDS011;5889;51.350;6.708;2022-08-18T14:17:18;6.22;;;5.63;;
11665;SDS011;5889;51.350;6.708;2022-08-18T14:19:45;6.32;;;5.78;;
11665;SDS011;5889;51.350;6.708;2022-08-18T14:22:29;6.93;;;6.22;;
11665;SDS011;5889;51.350;6.708;2022-08-18T14:25:15;6.85;;;5.95;;
11665;SDS011;5889;51.350;6.708;2022-08-18T14:27:59;7.65;;;6.35;;
11665;SDS011;5889;51.350;6.708;2022-08-18T14:30:26;7.07;;;6.10;;
11665;SDS011;5889;51.350;6.708;2022-08-18T14:32:53;7.72;;;5.82;;
11665;SDS011;5889;51.350;6.708;2022-08-18T14:35:20;8.13;;;5.65;;
11665;SDS011;5889;51.350;6.708;2022-08-18T14:37:47;6.57;;;5.50;;
11665;SDS011;5889;51.350;6.708;2022-08-18T14:40:16;6.55;;;5.60;;
11665;SDS011;5889;51.350;6.708;2022-08-18T14:42:44;23.63;;;6.63;;
11665;SDS011;5889;51.350;6.708;2022-08-18T14:45:11;9.68;;;6.53;;
11665;SDS011;5889;51.350;6.708;2022-08-18T14:47:39;6.47;;;5.88;;
11665;SDS011;5889;51.350;6.708;2022-08-18T14:50:07;6.72;;;6.13;;
11665;SDS011;5889;51.350;6.708;2022-08-18T14:52:37;5.82;;;5.00;;
11665;SDS011;5889;51.350;6.708;2022-08-18T14:55:06;5.20;;;4.70;;
11665;SDS011;5889;51.350;6.708;2022-08-18T14:57:36;6.68;;;5.45;;
11665;SDS011;5889;51.350;6.708;2022-08-18T15:00:05;7.70;;;4.82;;
11665;SDS011;5889;51.350;6.708;2022-08-18T15:02:36;5.90;;;5.20;;
11665;SDS011;5889;51.350;6.708;2022-08-18T15:05:04;5.10;;;4.50;;
11665;SDS011;5889;51.350;6.708;2022-08-18T15:07:32;5.88;;;5.05;;
11665;SDS011;5889;51.350;6.708;2022-08-18T15:10:02;5.30;;;4.80;;
11665;SDS011;5889;51.350;6.708;2022-08-18T15:12:29;6.20;;;4.80;;
11665;SDS011;5889;51.350;6.708;2022-08-18T15:14:57;6.57;;;4.82;;
11665;SDS011;5889;51.350;6.708;2022-08-18T15:17:25;7.30;;;5.18;;
11665;SDS011;5889;51.350;6.708;2022-08-18T15:19:52;5.80;;;4.85;;
11665;SDS011;5889;51.350;6.708;2022-08-18T15:22:19;5.43;;;4.88;;
11665;SDS011;5889;51.350;6.708;2022-08-18T15:25:04;6.90;;;5.03;;
11665;SDS011;5889;51.350;6.708;2022-08-18T15:27:50;6.78;;;4.68;;
11665;SDS011;5889;51.350;6.708;2022-08-18T15:30:19;5.00;;;4.55;;
11665;SDS011;5889;51.350;6.708;2022-08-18T15:32:47;5.50;;;4.45;;
11665;SDS011;5889;51.350;6.708;2022-08-18T15:35:15;6.85;;;4.60;;
11665;SDS011;5889;51.350;6.708;2022-08-18T15:37:43;5.30;;;4.80;;
11665;SDS011;5889;51.350;6.708;2022-08-18T15:40:12;6.30;;;5.18;;
11665;SDS011;5889;51.350;6.708;2022-08-18T15:42:41;6.35;;;5.38;;